sensor_id;sensor_type;location;lat;lon;timestamp;P1;durP1;ratioP1;P2;durP2;ratioP2
78402;SDS011;67687;43.508;1.504;2023-04-15T00:00:15;18.73;;;3.30;;
78402;SDS011;67687;43.508;1.504;2023-04-15T00:02:42;18.15;;;3.10;;
78402;SDS011;67687;43.508;1.504;2023-04-15T00:05:09;21.43;;;3.50;;
78402;SDS011;67687;43.508;1.504;2023-04-15T00:07:36;20.85;;;3.72;;
78402;SDS011;67687;43.508;1.504;2023-04-15T00:10:03;23.58;;;4.07;;
78402;SDS011;67687;43.508;1.504;2023-04-15T00:12:30;22.52;;;3.00;;
78402;SDS011;67687;43.508;1.504;2023-04-15T00:14:58;22.10;;;3.50;;
78402;SDS011;67687;43.508;1.504;2023-04-15T00:17:25;22.53;;;4.30;;
78402;SDS011;67687;43.508;1.504;2023-04-15T00:19:52;27.00;;;4.00;;
78402;SDS011;67687;43.508;1.504;2023-04-15T00:22:18;16.55;;;2.90;;
78402;SDS011;67687;43.508;1.504;2023-04-15T00:24:45;19.15;;;3.13;;
78402;SDS011;67687;43.508;1.504;2023-04-15T00:27:12;22.45;;;3.22;;
78402;SDS011;67687;43.508;1.504;2023-04-15T00:29:39;23.10;;;3.60;;
78402;SDS011;67687;43.508;1.504;2023-04-15T00:32:07;18.38;;;3.47;;
78402;SDS011;67687;43.508;1.504;2023-04-15T00:34:34;18.10;;;3.15;;
78402;SDS011;67687;43.508;1.504;2023-04-15T00:37:02;19.67;;;3.08;;
78402;SDS011;67687;43.508;1.504;2023-04-15T00:39:29;23.42;;;3.83;;
78402;SDS011;67687;43.508;1.504;2023-04-15T00:41:55;30.20;;;3.63;;
78402;SDS011;67687;43.508;1.504;2023-04-15T00:44:23;23.15;;;3.22;;
78402;SDS011;67687;43.508;1.504;2023-04-15T00:46:50;20.52;;;3.78;;
78402;SDS011;67687;43.508;1.504;2023-04-15T00:49:18;22.73;;;3.38;;
78402;SDS011;67687;43.508;1.504;2023-04-15T00:51:45;18.40;;;3.55;;
78402;SDS011;67687;43.508;1.504;2023-04-15T00:54:12;19.90;;;3.40;;
78402;SDS011;67687;43.508;1.504;2023-04-15T00:56:39;19.60;;;3.03;;
78402;SDS011;67687;43.508;1.504;2023-04-15T00:59:06;19.20;;;3.28;;
78402;SDS011;67687;43.508;1.504;2023-04-15T01:01:33;18.52;;;3.05;;
78402;SDS011;67687;43.508;1.504;2023-04-15T01:04:01;24.35;;;3.22;;
78402;SDS011;67687;43.508;1.504;2023-04-15T01:06:29;24.60;;;3.50;;
78402;SDS011;67687;43.508;1.504;2023-04-15T01:08:57;22.10;;;3.10;;
78402;SDS011;67687;43.508;1.504;2023-04-15T01:11:24;20.30;;;3.70;;
78402;SDS011;67687;43.508;1.504;2023-04-15T01:13:51;26.23;;;4.10;;
78402;SDS011;67687;43.508;1.504;2023-04-15T01:16:18;19.58;;;3.38;;
78402;SDS011;67687;43.508;1.504;2023-04-15T01:18:45;20.13;;;3.30;;
78402;SDS011;67687;43.508;1.504;2023-04-15T01:21:12;23.15;;;3.70;;
78402;SDS011;67687;43.508;1.504;2023-04-15T01:23:40;30.17;;;3.80;;
78402;SDS011;67687;43.508;1.504;2023-04-15T01:26:08;19.95;;;2.97;;
78402;SDS011;67687;43.508;1.504;2023-04-15T01:28:36;18.38;;;3.28;;
78402;SDS011;67687;43.508;1.504;2023-04-15T01:31:06;22.23;;;3.17;;
78402;SDS011;67687;43.508;1.504;2023-04-15T01:33:34;19.33;;;3.25;;
78402;SDS011;67687;43.508;1.504;2023-04-15T01:36:02;23.13;;;3.17;;
78402;SDS011;67687;43.508;1.504;2023-04-15T01:38:29;23.20;;;3.30;;
78402;SDS011;67687;43.508;1.504;2023-04-15T01:40:56;24.65;;;3.20;;
78402;SDS011;67687;43.508;1.504;2023-04-15T01:43:24;21.87;;;3.13;;
78402;SDS011;67687;43.508;1.504;2023-04-15T01:45:52;26.65;;;3.50;;
78402;SDS011;67687;43.508;1.504;2023-04-15T01:48:19;23.27;;;3.90;;
78402;SDS011;67687;43.508;1.504;2023-04-15T01:50:46;23.52;;;3.58;;
78402;SDS011;67687;43.508;1.504;2023-04-15T01:53:12;17.02;;;3.35;;
78402;SDS011;67687;43.508;1.504;2023-04-15T01:55:39;20.70;;;3.17;;
78402;SDS011;67687;43.508;1.504;2023-04-15T01:58:06;19.15;;;2.78;;
78402;SDS011;67687;43.508;1.504;2023-04-15T02:00:35;18.35;;;3.13;;
78402;SDS011;67687;43.508;1.504;2023-04-15T02:03:02;16.52;;;3.05;;
78402;SDS011;67687;43.508;1.504;2023-04-15T02:05:29;18.95;;;2.90;;
78402;SDS011;67687;43.508;1.504;2023-04-15T02:07:56;18.97;;;3.00;;
78402;SDS011;67687;43.508;1.504;2023-04-15T02:10:23;17.85;;;2.78;;
78402;SDS011;67687;43.508;1.504;2023-04-15T02:12:50;25.17;;;3.33;;
78402;SDS011;67687;43.508;1.504;2023-04-15T02:15:17;22.83;;;2.88;;
78402;SDS011;67687;43.508;1.504;2023-04-15T02:17:45;19.20;;;2.90;;
78402;SDS011;67687;43.508;1.504;2023-04-15T02:20:15;16.13;;;2.57;;
78402;SDS011;67687;43.508;1.504;2023-04-15T02:22:41;14.20;;;2.60;;
78402;SDS011;67687;43.508;1.504;2023-04-15T02:25:08;12.77;;;2.25;;
78402;SDS011;67687;43.508;1.504;2023-04-15T02:27:35;11.75;;;1.52;;
78402;SDS011;67687;43.508;1.504;2023-04-15T02:30:02;11.40;;;1.67;;
78402;SDS011;67687;43.508;1.504;2023-04-15T02:32:30;8.77;;;1.50;;
78402;SDS011;67687;43.508;1.504;2023-04-15T02:35:02;13.07;;;1.63;;
78402;SDS011;67687;43.508;1.504;2023-04-15T02:37:29;7.60;;;1.30;;
78402;SDS011;67687;43.508;1.504;2023-04-15T02:39:57;15.98;;;1.80;;
78402;SDS011;67687;43.508;1.504;2023-04-15T02:42:24;7.38;;;1.50;;
78402;SDS011;67687;43.508;1.504;2023-04-15T02:44:52;12.30;;;1.50;;
78402;SDS011;67687;43.508;1.504;2023-04-15T02:47:19;10.73;;;1.42;;
78402;SDS011;67687;43.508;1.504;2023-04-15T02:49:46;11.65;;;1.92;;
78402;SDS011;67687;43.508;1.504;2023-04-15T02:52:15;13.00;;;1.92;;
78402;SDS011;67687;43.508;1.504;2023-04-15T02:54:41;18.83;;;2.22;;
78402;SDS011;67687;43.508;1.504;2023-04-15T02:57:08;18.63;;;2.47;;
78402;SDS011;67687;43.508;1.504;2023-04-15T02:59:35;18.00;;;3.03;;
78402;SDS011;67687;43.508;1.504;2023-04-15T03:02:03;22.63;;;2.80;;
78402;SDS011;67687;43.508;1.504;2023-04-15T03:04:31;14.98;;;2.65;;
78402;SDS011;67687;43.508;1.504;2023-04-15T03:06:59;19.77;;;2.90;;
78402;SDS011;67687;43.508;1.504;2023-04-15T03:09:28;15.47;;;2.70;;
78402;SDS011;67687;43.508;1.504;2023-04-15T03:11:55;11.32;;;1.88;;
78402;SDS011;67687;43.508;1.504;2023-04-15T03:14:22;13.63;;;2.03;;
78402;SDS011;67687;43.508;1.504;2023-04-15T03:16:48;12.90;;;2.03;;
78402;SDS011;67687;43.508;1.504;2023-04-15T03:19:16;13.57;;;2.30;;
78402;SDS011;67687;43.508;1.504;2023-04-15T03:21:42;17.83;;;2.73;;
78402;SDS011;67687;43.508;1.504;2023-04-15T03:24:09;17.20;;;2.55;;
78402;SDS011;67687;43.508;1.504;2023-04-15T03:26:37;12.20;;;2.75;;
78402;SDS011;67687;43.508;1.504;2023-04-15T03:29:04;17.02;;;2.45;;
78402;SDS011;67687;43.508;1.504;2023-04-15T03:31:31;21.38;;;2.50;;
78402;SDS011;67687;43.508;1.504;2023-04-15T03:33:58;18.43;;;2.50;;
78402;SDS011;67687;43.508;1.504;2023-04-15T03:36:25;19.02;;;2.35;;
78402;SDS011;67687;43.508;1.504;2023-04-15T03:38:52;20.02;;;2.97;;
78402;SDS011;67687;43.508;1.504;2023-04-15T03:41:19;24.45;;;3.08;;
78402;SDS011;67687;43.508;1.504;2023-04-15T03:43:47;14.18;;;2.78;;
78402;SDS011;67687;43.508;1.504;2023-04-15T03:46:17;12.03;;;1.57;;
78402;SDS011;67687;43.508;1.504;2023-04-15T03:48:44;12.75;;;1.63;;
78402;SDS011;67687;43.508;1.504;2023-04-15T03:51:13;10.93;;;1.65;;
78402;SDS011;67687;43.508;1.504;2023-04-15T03:53:40;10.80;;;1.73;;
78402;SDS011;67687;43.508;1.504;2023-04-15T03:56:07;9.93;;;1.10;;
78402;SDS011;67687;43.508;1.504;2023-04-15T03:58:33;10.53;;;1.50;;
78402;SDS011;67687;43.508;1.504;2023-04-15T04:01:02;8.77;;;1.38;;
78402;SDS011;67687;43.508;1.504;2023-04-15T04:03:28;12.82;;;2.40;;
78402;SDS011;67687;43.508;1.504;2023-04-15T04:05:55;17.25;;;1.98;;
78402;SDS011;67687;43.508;1.504;2023-04-15T04:08:22;11.15;;;1.50;;
78402;SDS011;67687;43.508;1.504;2023-04-15T04:10:49;13.23;;;2.40;;
78402;SDS011;67687;43.508;1.504;2023-04-15T04:13:15;13.70;;;1.90;;
78402;SDS011;67687;43.508;1.504;2023-04-15T04:15:42;13.57;;;1.88;;
78402;SDS011;67687;43.508;1.504;2023-04-15T04:18:10;13.98;;;2.00;;
78402;SDS011;67687;43.508;1.504;2023-04-15T04:20:37;12.02;;;1.80;;
78402;SDS011;67687;43.508;1.504;2023-04-15T04:23:04;12.63;;;1.83;;
78402;SDS011;67687;43.508;1.504;2023-04-15T04:25:30;16.08;;;1.98;;
78402;SDS011;67687;43.508;1.504;2023-04-15T04:27:57;12.57;;;2.30;;
78402;SDS011;67687;43.508;1.504;2023-04-15T04:30:24;15.63;;;1.88;;
78402;SDS011;67687;43.508;1.504;2023-04-15T04:32:51;12.40;;;2.20;;
78402;SDS011;67687;43.508;1.504;2023-04-15T04:35:19;14.47;;;1.80;;
78402;SDS011;67687;43.508;1.504;2023-04-15T04:37:46;10.70;;;2.17;;
78402;SDS011;67687;43.508;1.504;2023-04-15T04:40:13;14.48;;;1.80;;
78402;SDS011;67687;43.508;1.504;2023-04-15T04:42:40;11.00;;;1.90;;
78402;SDS011;67687;43.508;1.504;2023-04-15T04:45:07;12.45;;;1.88;;
78402;SDS011;67687;43.508;1.504;2023-04-15T04:47:34;13.03;;;1.83;;
78402;SDS011;67687;43.508;1.504;2023-04-15T04:50:01;16.70;;;1.90;;
78402;SDS011;67687;43.508;1.504;2023-04-15T04:52:30;12.23;;;1.75;;
78402;SDS011;67687;43.508;1.504;2023-04-15T04:54:56;13.55;;;2.05;;
78402;SDS011;67687;43.508;1.504;2023-04-15T04:57:23;14.07;;;1.65;;
78402;SDS011;67687;43.508;1.504;2023-04-15T04:59:50;17.50;;;2.63;;
78402;SDS011;67687;43.508;1.504;2023-04-15T05:02:16;13.38;;;2.00;;
78402;SDS011;67687;43.508;1.504;2023-04-15T05:04:43;13.57;;;1.90;;
78402;SDS011;67687;43.508;1.504;2023-04-15T05:07:10;17.42;;;3.13;;
78402;SDS011;67687;43.508;1.504;2023-04-15T05:09:38;12.48;;;1.73;;
78402;SDS011;67687;43.508;1.504;2023-04-15T05:12:06;11.83;;;1.60;;
78402;SDS011;67687;43.508;1.504;2023-04-15T05:14:33;12.20;;;1.88;;
78402;SDS011;67687;43.508;1.504;2023-04-15T05:16:59;14.15;;;1.90;;
78402;SDS011;67687;43.508;1.504;2023-04-15T05:19:26;13.95;;;1.73;;
78402;SDS011;67687;43.508;1.504;2023-04-15T05:21:53;8.88;;;2.00;;
78402;SDS011;67687;43.508;1.504;2023-04-15T05:24:19;8.60;;;1.27;;
78402;SDS011;67687;43.508;1.504;2023-04-15T05:26:48;10.52;;;1.73;;
78402;SDS011;67687;43.508;1.504;2023-04-15T05:29:15;8.85;;;1.55;;
78402;SDS011;67687;43.508;1.504;2023-04-15T05:31:41;9.23;;;1.38;;
78402;SDS011;67687;43.508;1.504;2023-04-15T05:34:08;11.18;;;1.48;;
78402;SDS011;67687;43.508;1.504;2023-04-15T05:36:35;10.27;;;1.30;;
78402;SDS011;67687;43.508;1.504;2023-04-15T05:39:02;11.10;;;1.77;;
78402;SDS011;67687;43.508;1.504;2023-04-15T05:41:29;13.63;;;1.73;;
78402;SDS011;67687;43.508;1.504;2023-04-15T05:43:57;9.73;;;1.17;;
78402;SDS011;67687;43.508;1.504;2023-04-15T05:46:24;9.45;;;1.58;;
78402;SDS011;67687;43.508;1.504;2023-04-15T05:48:51;10.77;;;1.33;;
78402;SDS011;67687;43.508;1.504;2023-04-15T05:51:18;8.02;;;1.50;;
78402;SDS011;67687;43.508;1.504;2023-04-15T05:53:45;7.97;;;1.33;;
78402;SDS011;67687;43.508;1.504;2023-04-15T05:56:11;6.25;;;1.13;;
78402;SDS011;67687;43.508;1.504;2023-04-15T05:58:38;9.68;;;1.50;;
78402;SDS011;67687;43.508;1.504;2023-04-15T06:01:06;8.97;;;1.60;;
78402;SDS011;67687;43.508;1.504;2023-04-15T06:03:33;10.02;;;1.67;;
78402;SDS011;67687;43.508;1.504;2023-04-15T06:06:00;9.95;;;1.48;;
78402;SDS011;67687;43.508;1.504;2023-04-15T06:08:27;7.85;;;1.20;;
78402;SDS011;67687;43.508;1.504;2023-04-15T06:10:54;11.00;;;1.50;;
78402;SDS011;67687;43.508;1.504;2023-04-15T06:13:21;8.37;;;1.37;;
78402;SDS011;67687;43.508;1.504;2023-04-15T06:15:48;9.52;;;1.40;;
78402;SDS011;67687;43.508;1.504;2023-04-15T06:18:16;11.82;;;1.55;;
78402;SDS011;67687;43.508;1.504;2023-04-15T06:20:43;10.27;;;1.20;;
78402;SDS011;67687;43.508;1.504;2023-04-15T06:23:09;10.40;;;1.13;;
78402;SDS011;67687;43.508;1.504;2023-04-15T06:25:36;9.97;;;1.50;;
78402;SDS011;67687;43.508;1.504;2023-04-15T06:28:03;7.43;;;1.10;;
78402;SDS011;67687;43.508;1.504;2023-04-15T06:30:30;10.82;;;1.90;;
78402;SDS011;67687;43.508;1.504;2023-04-15T06:32:57;7.40;;;0.90;;
78402;SDS011;67687;43.508;1.504;2023-04-15T06:35:25;10.18;;;1.55;;
78402;SDS011;67687;43.508;1.504;2023-04-15T06:37:52;17.77;;;2.47;;
78402;SDS011;67687;43.508;1.504;2023-04-15T06:40:19;6.43;;;1.00;;
78402;SDS011;67687;43.508;1.504;2023-04-15T06:42:46;10.20;;;1.35;;
78402;SDS011;67687;43.508;1.504;2023-04-15T06:45:13;7.93;;;1.10;;
78402;SDS011;67687;43.508;1.504;2023-04-15T06:47:40;8.40;;;1.42;;
78402;SDS011;67687;43.508;1.504;2023-04-15T06:50:08;8.87;;;1.20;;
78402;SDS011;67687;43.508;1.504;2023-04-15T06:52:37;9.55;;;1.70;;
78402;SDS011;67687;43.508;1.504;2023-04-15T06:55:04;9.50;;;1.40;;
78402;SDS011;67687;43.508;1.504;2023-04-15T06:57:32;10.32;;;1.30;;
78402;SDS011;67687;43.508;1.504;2023-04-15T06:59:58;10.05;;;1.73;;
78402;SDS011;67687;43.508;1.504;2023-04-15T07:02:25;5.73;;;1.20;;
78402;SDS011;67687;43.508;1.504;2023-04-15T07:04:52;4.72;;;1.00;;
78402;SDS011;67687;43.508;1.504;2023-04-15T07:07:19;6.82;;;0.85;;
78402;SDS011;67687;43.508;1.504;2023-04-15T07:09:47;4.85;;;0.70;;
78402;SDS011;67687;43.508;1.504;2023-04-15T07:12:14;4.15;;;0.70;;
78402;SDS011;67687;43.508;1.504;2023-04-15T07:14:41;4.37;;;0.60;;
78402;SDS011;67687;43.508;1.504;2023-04-15T07:17:08;3.92;;;0.80;;
78402;SDS011;67687;43.508;1.504;2023-04-15T07:19:35;3.67;;;0.70;;
78402;SDS011;67687;43.508;1.504;2023-04-15T07:22:02;5.53;;;1.27;;
78402;SDS011;67687;43.508;1.504;2023-04-15T07:24:29;3.58;;;0.60;;
78402;SDS011;67687;43.508;1.504;2023-04-15T07:26:57;5.10;;;0.90;;
78402;SDS011;67687;43.508;1.504;2023-04-15T07:29:24;5.05;;;0.73;;
78402;SDS011;67687;43.508;1.504;2023-04-15T07:31:51;4.90;;;0.80;;
78402;SDS011;67687;43.508;1.504;2023-04-15T07:34:19;4.35;;;1.08;;
78402;SDS011;67687;43.508;1.504;2023-04-15T07:36:46;3.58;;;0.80;;
78402;SDS011;67687;43.508;1.504;2023-04-15T07:39:14;7.63;;;0.87;;
78402;SDS011;67687;43.508;1.504;2023-04-15T07:41:41;4.72;;;0.70;;
78402;SDS011;67687;43.508;1.504;2023-04-15T07:44:09;6.13;;;1.50;;
78402;SDS011;67687;43.508;1.504;2023-04-15T07:46:36;5.75;;;1.00;;
78402;SDS011;67687;43.508;1.504;2023-04-15T07:49:03;6.45;;;1.20;;
78402;SDS011;67687;43.508;1.504;2023-04-15T07:51:30;6.60;;;1.10;;
78402;SDS011;67687;43.508;1.504;2023-04-15T07:53:56;7.80;;;1.73;;
78402;SDS011;67687;43.508;1.504;2023-04-15T07:56:23;8.27;;;2.30;;
78402;SDS011;67687;43.508;1.504;2023-04-15T07:58:50;7.45;;;2.00;;
78402;SDS011;67687;43.508;1.504;2023-04-15T08:01:20;5.88;;;1.20;;
78402;SDS011;67687;43.508;1.504;2023-04-15T08:03:47;6.60;;;1.50;;
78402;SDS011;67687;43.508;1.504;2023-04-15T08:06:14;6.10;;;1.52;;
78402;SDS011;67687;43.508;1.504;2023-04-15T08:08:40;8.15;;;2.08;;
78402;SDS011;67687;43.508;1.504;2023-04-15T08:11:08;5.22;;;1.48;;
78402;SDS011;67687;43.508;1.504;2023-04-15T08:13:34;9.93;;;1.63;;
78402;SDS011;67687;43.508;1.504;2023-04-15T08:16:17;4.27;;;1.80;;
78402;SDS011;67687;43.508;1.504;2023-04-15T08:18:46;8.15;;;1.90;;
78402;SDS011;67687;43.508;1.504;2023-04-15T08:21:14;7.20;;;2.10;;
78402;SDS011;67687;43.508;1.504;2023-04-15T08:23:41;8.90;;;2.10;;
78402;SDS011;67687;43.508;1.504;2023-04-15T08:26:08;8.98;;;2.72;;
78402;SDS011;67687;43.508;1.504;2023-04-15T08:28:38;7.87;;;1.93;;
78402;SDS011;67687;43.508;1.504;2023-04-15T08:31:05;7.90;;;2.13;;
78402;SDS011;67687;43.508;1.504;2023-04-15T08:33:33;8.93;;;2.35;;
78402;SDS011;67687;43.508;1.504;2023-04-15T08:36:01;13.02;;;2.83;;
78402;SDS011;67687;43.508;1.504;2023-04-15T08:38:28;11.50;;;2.65;;
78402;SDS011;67687;43.508;1.504;2023-04-15T08:40:55;8.40;;;2.23;;
78402;SDS011;67687;43.508;1.504;2023-04-15T08:43:26;9.00;;;1.40;;
78402;SDS011;67687;43.508;1.504;2023-04-15T08:45:54;7.03;;;1.52;;
78402;SDS011;67687;43.508;1.504;2023-04-15T08:48:23;9.38;;;1.70;;
78402;SDS011;67687;43.508;1.504;2023-04-15T08:50:52;8.60;;;1.60;;
78402;SDS011;67687;43.508;1.504;2023-04-15T08:53:21;7.23;;;1.63;;
78402;SDS011;67687;43.508;1.504;2023-04-15T08:55:51;9.20;;;1.70;;
78402;SDS011;67687;43.508;1.504;2023-04-15T08:58:20;10.20;;;2.20;;
78402;SDS011;67687;43.508;1.504;2023-04-15T09:00:47;11.32;;;2.97;;
78402;SDS011;67687;43.508;1.504;2023-04-15T09:03:14;9.32;;;2.83;;
78402;SDS011;67687;43.508;1.504;2023-04-15T09:05:42;9.47;;;2.43;;
78402;SDS011;67687;43.508;1.504;2023-04-15T09:08:09;9.82;;;2.78;;
78402;SDS011;67687;43.508;1.504;2023-04-15T09:10:38;8.95;;;1.77;;
78402;SDS011;67687;43.508;1.504;2023-04-15T09:13:04;8.02;;;2.33;;
78402;SDS011;67687;43.508;1.504;2023-04-15T09:15:31;7.50;;;2.00;;
78402;SDS011;67687;43.508;1.504;2023-04-15T09:17:58;8.40;;;1.70;;
78402;SDS011;67687;43.508;1.504;2023-04-15T09:20:25;6.93;;;1.45;;
78402;SDS011;67687;43.508;1.504;2023-04-15T09:22:52;7.18;;;1.60;;
78402;SDS011;67687;43.508;1.504;2023-04-15T09:25:25;8.75;;;2.15;;
78402;SDS011;67687;43.508;1.504;2023-04-15T09:27:55;9.50;;;1.40;;
78402;SDS011;67687;43.508;1.504;2023-04-15T09:30:23;11.83;;;2.23;;
78402;SDS011;67687;43.508;1.504;2023-04-15T09:32:50;6.90;;;1.40;;
78402;SDS011;67687;43.508;1.504;2023-04-15T09:35:17;8.15;;;1.63;;
78402;SDS011;67687;43.508;1.504;2023-04-15T09:37:44;5.88;;;1.42;;
78402;SDS011;67687;43.508;1.504;2023-04-15T09:40:11;8.88;;;1.60;;
78402;SDS011;67687;43.508;1.504;2023-04-15T09:42:52;7.87;;;1.33;;
78402;SDS011;67687;43.508;1.504;2023-04-15T09:45:21;6.80;;;1.38;;
78402;SDS011;67687;43.508;1.504;2023-04-15T09:47:49;7.50;;;1.52;;
78402;SDS011;67687;43.508;1.504;2023-04-15T09:50:17;7.30;;;1.55;;
78402;SDS011;67687;43.508;1.504;2023-04-15T09:52:44;6.40;;;2.05;;
78402;SDS011;67687;43.508;1.504;2023-04-15T09:55:12;9.03;;;1.40;;
78402;SDS011;67687;43.508;1.504;2023-04-15T09:57:39;6.80;;;1.30;;
78402;SDS011;67687;43.508;1.504;2023-04-15T10:00:10;7.43;;;1.40;;
78402;SDS011;67687;43.508;1.504;2023-04-15T10:02:38;8.30;;;1.80;;
78402;SDS011;67687;43.508;1.504;2023-04-15T10:05:06;8.38;;;1.52;;
78402;SDS011;67687;43.508;1.504;2023-04-15T10:07:33;8.40;;;1.40;;
78402;SDS011;67687;43.508;1.504;2023-04-15T10:10:00;7.53;;;1.48;;
78402;SDS011;67687;43.508;1.504;2023-04-15T10:12:27;7.25;;;1.50;;
78402;SDS011;67687;43.508;1.504;2023-04-15T10:14:55;9.15;;;1.83;;
78402;SDS011;67687;43.508;1.504;2023-04-15T10:17:26;6.05;;;1.40;;
78402;SDS011;67687;43.508;1.504;2023-04-15T10:19:55;10.07;;;1.50;;
78402;SDS011;67687;43.508;1.504;2023-04-15T10:22:29;6.53;;;1.42;;
78402;SDS011;67687;43.508;1.504;2023-04-15T10:24:56;7.50;;;1.65;;
78402;SDS011;67687;43.508;1.504;2023-04-15T10:27:24;5.47;;;1.55;;
78402;SDS011;67687;43.508;1.504;2023-04-15T10:29:50;8.63;;;1.40;;
78402;SDS011;67687;43.508;1.504;2023-04-15T10:32:18;6.63;;;1.47;;
78402;SDS011;67687;43.508;1.504;2023-04-15T10:34:47;4.78;;;1.10;;
78402;SDS011;67687;43.508;1.504;2023-04-15T10:37:19;6.90;;;1.67;;
78402;SDS011;67687;43.508;1.504;2023-04-15T10:39:46;7.88;;;1.40;;
78402;SDS011;67687;43.508;1.504;2023-04-15T10:42:13;7.25;;;1.55;;
78402;SDS011;67687;43.508;1.504;2023-04-15T10:44:43;7.77;;;1.73;;
78402;SDS011;67687;43.508;1.504;2023-04-15T10:47:12;7.72;;;1.52;;
78402;SDS011;67687;43.508;1.504;2023-04-15T10:49:43;8.35;;;1.70;;
78402;SDS011;67687;43.508;1.504;2023-04-15T10:52:12;6.40;;;1.38;;
78402;SDS011;67687;43.508;1.504;2023-04-15T10:54:40;5.38;;;1.20;;
78402;SDS011;67687;43.508;1.504;2023-04-15T10:57:08;3.93;;;1.47;;
78402;SDS011;67687;43.508;1.504;2023-04-15T11:02:38;6.03;;;1.30;;
78402;SDS011;67687;43.508;1.504;2023-04-15T11:05:06;7.65;;;1.50;;
78402;SDS011;67687;43.508;1.504;2023-04-15T11:07:35;5.80;;;1.27;;
78402;SDS011;67687;43.508;1.504;2023-04-15T11:10:03;5.43;;;1.30;;
78402;SDS011;67687;43.508;1.504;2023-04-15T11:12:34;5.90;;;1.10;;
78402;SDS011;67687;43.508;1.504;2023-04-15T11:17:54;3.55;;;1.10;;
78402;SDS011;67687;43.508;1.504;2023-04-15T11:20:21;6.15;;;1.20;;
78402;SDS011;67687;43.508;1.504;2023-04-15T11:22:49;6.57;;;1.47;;
78402;SDS011;67687;43.508;1.504;2023-04-15T11:25:21;6.47;;;1.25;;
78402;SDS011;67687;43.508;1.504;2023-04-15T11:27:48;4.88;;;1.10;;
78402;SDS011;67687;43.508;1.504;2023-04-15T11:30:17;5.65;;;1.20;;
78402;SDS011;67687;43.508;1.504;2023-04-15T11:32:45;4.50;;;0.82;;
78402;SDS011;67687;43.508;1.504;2023-04-15T11:35:12;6.87;;;1.20;;
78402;SDS011;67687;43.508;1.504;2023-04-15T11:37:39;7.82;;;1.25;;
78402;SDS011;67687;43.508;1.504;2023-04-15T11:40:08;6.53;;;1.30;;
78402;SDS011;67687;43.508;1.504;2023-04-15T11:42:35;5.60;;;1.42;;
78402;SDS011;67687;43.508;1.504;2023-04-15T11:45:05;5.07;;;1.30;;
78402;SDS011;67687;43.508;1.504;2023-04-15T11:47:33;5.23;;;1.17;;
78402;SDS011;67687;43.508;1.504;2023-04-15T11:50:12;6.18;;;1.33;;
78402;SDS011;67687;43.508;1.504;2023-04-15T11:52:40;7.85;;;1.48;;
78402;SDS011;67687;43.508;1.504;2023-04-15T11:55:08;5.68;;;1.15;;
78402;SDS011;67687;43.508;1.504;2023-04-15T11:57:35;6.75;;;1.20;;
78402;SDS011;67687;43.508;1.504;2023-04-15T12:00:02;5.63;;;1.10;;
78402;SDS011;67687;43.508;1.504;2023-04-15T12:02:30;5.97;;;1.30;;
78402;SDS011;67687;43.508;1.504;2023-04-15T12:05:01;6.55;;;1.23;;
78402;SDS011;67687;43.508;1.504;2023-04-15T12:07:29;6.15;;;1.10;;
78402;SDS011;67687;43.508;1.504;2023-04-15T12:09:56;6.20;;;1.25;;
78402;SDS011;67687;43.508;1.504;2023-04-15T12:12:27;7.73;;;1.57;;
78402;SDS011;67687;43.508;1.504;2023-04-15T12:14:55;4.95;;;1.25;;
78402;SDS011;67687;43.508;1.504;2023-04-15T12:17:22;4.30;;;1.00;;
78402;SDS011;67687;43.508;1.504;2023-04-15T12:19:54;6.63;;;1.17;;
78402;SDS011;67687;43.508;1.504;2023-04-15T12:22:24;4.53;;;1.27;;
78402;SDS011;67687;43.508;1.504;2023-04-15T12:25:17;5.23;;;1.37;;
78402;SDS011;67687;43.508;1.504;2023-04-15T12:27:51;5.78;;;0.90;;
78402;SDS011;67687;43.508;1.504;2023-04-15T12:30:18;6.57;;;1.30;;
78402;SDS011;67687;43.508;1.504;2023-04-15T12:32:45;5.80;;;1.10;;
78402;SDS011;67687;43.508;1.504;2023-04-15T12:35:12;6.95;;;1.08;;
78402;SDS011;67687;43.508;1.504;2023-04-15T12:37:39;5.13;;;0.90;;
78402;SDS011;67687;43.508;1.504;2023-04-15T12:40:07;6.13;;;0.98;;
78402;SDS011;67687;43.508;1.504;2023-04-15T12:42:34;6.05;;;0.90;;
78402;SDS011;67687;43.508;1.504;2023-04-15T12:45:02;7.25;;;1.10;;
78402;SDS011;67687;43.508;1.504;2023-04-15T12:47:29;5.97;;;1.10;;
78402;SDS011;67687;43.508;1.504;2023-04-15T12:49:59;5.70;;;1.20;;
78402;SDS011;67687;43.508;1.504;2023-04-15T12:52:26;6.78;;;1.10;;
78402;SDS011;67687;43.508;1.504;2023-04-15T12:54:53;6.18;;;1.25;;
78402;SDS011;67687;43.508;1.504;2023-04-15T12:57:20;8.63;;;1.20;;
78402;SDS011;67687;43.508;1.504;2023-04-15T12:59:47;3.35;;;1.00;;
78402;SDS011;67687;43.508;1.504;2023-04-15T13:02:15;4.70;;;1.07;;
78402;SDS011;67687;43.508;1.504;2023-04-15T13:04:42;4.72;;;1.50;;
78402;SDS011;67687;43.508;1.504;2023-04-15T13:07:10;4.32;;;1.23;;
78402;SDS011;67687;43.508;1.504;2023-04-15T13:09:39;6.13;;;1.33;;
78402;SDS011;67687;43.508;1.504;2023-04-15T13:12:06;5.97;;;1.23;;
78402;SDS011;67687;43.508;1.504;2023-04-15T13:14:33;4.10;;;1.13;;
78402;SDS011;67687;43.508;1.504;2023-04-15T13:17:00;4.47;;;1.00;;
78402;SDS011;67687;43.508;1.504;2023-04-15T13:19:29;6.25;;;1.23;;
78402;SDS011;67687;43.508;1.504;2023-04-15T13:21:56;6.80;;;1.20;;
78402;SDS011;67687;43.508;1.504;2023-04-15T13:24:23;3.75;;;1.00;;
78402;SDS011;67687;43.508;1.504;2023-04-15T13:26:49;5.07;;;1.37;;
78402;SDS011;67687;43.508;1.504;2023-04-15T13:29:17;5.70;;;1.50;;
78402;SDS011;67687;43.508;1.504;2023-04-15T13:31:44;5.25;;;1.13;;
78402;SDS011;67687;43.508;1.504;2023-04-15T13:34:10;5.05;;;1.23;;
78402;SDS011;67687;43.508;1.504;2023-04-15T13:36:39;8.07;;;1.15;;
78402;SDS011;67687;43.508;1.504;2023-04-15T13:39:06;5.90;;;1.13;;
78402;SDS011;67687;43.508;1.504;2023-04-15T13:41:33;4.72;;;1.25;;
78402;SDS011;67687;43.508;1.504;2023-04-15T13:44:01;4.18;;;0.90;;
78402;SDS011;67687;43.508;1.504;2023-04-15T13:46:29;5.20;;;1.10;;
78402;SDS011;67687;43.508;1.504;2023-04-15T13:48:57;5.35;;;1.20;;
78402;SDS011;67687;43.508;1.504;2023-04-15T13:51:24;5.37;;;1.13;;
78402;SDS011;67687;43.508;1.504;2023-04-15T13:53:52;5.45;;;1.00;;
78402;SDS011;67687;43.508;1.504;2023-04-15T13:56:19;3.78;;;1.15;;
78402;SDS011;67687;43.508;1.504;2023-04-15T13:58:46;4.35;;;1.20;;
78402;SDS011;67687;43.508;1.504;2023-04-15T14:01:13;4.35;;;1.08;;
78402;SDS011;67687;43.508;1.504;2023-04-15T14:03:39;4.07;;;0.97;;
78402;SDS011;67687;43.508;1.504;2023-04-15T14:06:09;4.32;;;1.27;;
78402;SDS011;67687;43.508;1.504;2023-04-15T14:08:36;5.22;;;1.17;;
78402;SDS011;67687;43.508;1.504;2023-04-15T14:11:05;4.70;;;0.80;;
78402;SDS011;67687;43.508;1.504;2023-04-15T14:13:31;3.53;;;1.10;;
78402;SDS011;67687;43.508;1.504;2023-04-15T14:15:58;4.03;;;1.00;;
78402;SDS011;67687;43.508;1.504;2023-04-15T14:18:25;4.45;;;1.30;;
78402;SDS011;67687;43.508;1.504;2023-04-15T14:20:52;6.57;;;1.70;;
78402;SDS011;67687;43.508;1.504;2023-04-15T14:23:18;5.70;;;1.17;;
78402;SDS011;67687;43.508;1.504;2023-04-15T14:25:45;4.40;;;1.70;;
78402;SDS011;67687;43.508;1.504;2023-04-15T14:28:13;5.40;;;1.53;;
78402;SDS011;67687;43.508;1.504;2023-04-15T14:30:40;6.35;;;2.30;;
78402;SDS011;67687;43.508;1.504;2023-04-15T14:33:08;7.15;;;2.03;;
78402;SDS011;67687;43.508;1.504;2023-04-15T14:35:34;5.63;;;1.50;;
78402;SDS011;67687;43.508;1.504;2023-04-15T14:38:02;4.55;;;1.10;;
78402;SDS011;67687;43.508;1.504;2023-04-15T14:40:30;5.33;;;1.10;;
78402;SDS011;67687;43.508;1.504;2023-04-15T14:42:56;8.23;;;1.20;;
78402;SDS011;67687;43.508;1.504;2023-04-15T14:45:24;5.40;;;1.63;;
78402;SDS011;67687;43.508;1.504;2023-04-15T14:47:51;6.00;;;1.42;;
78402;SDS011;67687;43.508;1.504;2023-04-15T14:50:18;2.90;;;0.93;;